XUA2006 SLLP-SCFA
Flight info
| Callsign | XUA2006 |
|---|---|
| Flight time | N/A |
| Altitude | 36000 |
| Route | DEVUR UM664 VAGUR UT291 ERISO/N0448F350 UT291 LOBAG UQ803 ENLUS ENLUS5A |
| Aircraft | A320/M-SDE3FGHIRWY/LB1 |
Departure
| Time | N/A |
|---|---|
| Airport | El Alto International Airport (SLLP) |
Arrival
| Time | 2026-04-23 21:47 |
|---|---|
| Airport | Andrés Sabella Gálvez International Airport (SCFA) |
| Time | Latitude | Longitude | Altitude | Speed | Heading |
|---|---|---|---|---|---|
| 2026-04-23 21:47 | -23.44993 | -70.44187 | 387 ft | 0 kts | 145° |
| 2026-04-23 21:54 | -23.44982 | -70.44196 | 387 ft | 3 kts | 133° |
| 2026-04-23 21:54 | -23.44971 | -70.44213 | 388 ft | 3 kts | 108° |
| 2026-04-23 21:54 | -23.44966 | -70.44231 | 388 ft | 1 kts | 97° |
| 2026-04-23 21:54 | -23.44966 | -70.44233 | 388 ft | 1 kts | 97° |
| 2026-04-23 21:56 | -23.44950 | -70.44216 | 389 ft | 7 kts | 10° |
| 2026-04-23 21:57 | -23.44921 | -70.44237 | 390 ft | 3 kts | 323° |
| 2026-04-23 21:57 | -23.44913 | -70.44244 | 390 ft | 1 kts | 324° |
| 2026-04-23 21:57 | -23.44889 | -70.44256 | 391 ft | 7 kts | 342° |
| 2026-04-23 21:57 | -23.44820 | -70.44263 | 392 ft | 12 kts | 349° |
| 2026-04-23 21:58 | -23.44743 | -70.44287 | 397 ft | 9 kts | 345° |
| 2026-04-23 21:58 | -23.44697 | -70.44300 | 400 ft | 5 kts | 345° |
| 2026-04-23 21:58 | -23.44675 | -70.44307 | 401 ft | 4 kts | 345° |
| 2026-04-23 21:58 | -23.44642 | -70.44316 | 402 ft | 6 kts | 345° |
| 2026-04-23 21:59 | -23.44592 | -70.44329 | 401 ft | 8 kts | 349° |
| 2026-04-23 21:59 | -23.44516 | -70.44325 | 408 ft | 14 kts | 11° |
| 2026-04-23 21:59 | -23.44400 | -70.44309 | 410 ft | 19 kts | 7° |
| 2026-04-23 22:00 | -23.44221 | -70.44284 | 422 ft | 7 kts | 7° |
| 2026-04-23 22:00 | -23.44187 | -70.44280 | 423 ft | 2 kts | 5° |
| 2026-04-23 22:00 | -23.44180 | -70.44279 | 423 ft | 1 kts | 5° |
| 2026-04-23 22:00 | -23.44166 | -70.44278 | 424 ft | 4 kts | 5° |
| 2026-04-23 22:01 | -23.44119 | -70.44274 | 426 ft | 9 kts | 5° |
| 2026-04-23 22:01 | -23.44039 | -70.44263 | 423 ft | 14 kts | 8° |
| 2026-04-23 22:01 | -23.43927 | -70.44248 | 426 ft | 18 kts | 7° |
| 2026-04-23 22:01 | -23.43784 | -70.44234 | 431 ft | 23 kts | 4° |
| 2026-04-23 22:02 | -23.43650 | -70.44217 | 448 ft | 16 kts | 7° |
| 2026-04-23 22:02 | -23.43559 | -70.44205 | 452 ft | 10 kts | 7° |
| 2026-04-23 22:02 | -23.43501 | -70.44215 | 455 ft | 7 kts | 326° |
| 2026-04-23 22:02 | -23.43474 | -70.44256 | 456 ft | 7 kts | 302° |
| 2026-04-23 22:03 | -23.43443 | -70.44320 | 457 ft | 12 kts | 295° |
| 2026-04-23 22:03 | -23.43481 | -70.44392 | 453 ft | 16 kts | 185° |
| 2026-04-23 22:03 | -23.43493 | -70.44393 | 454 ft | 0 kts | 185° |
| 2026-04-23 22:03 | -23.43509 | -70.44395 | 453 ft | 10 kts | 185° |
| 2026-04-23 22:04 | -23.43711 | -70.44419 | 432 ft | 46 kts | 187° |
| 2026-04-23 22:04 | -23.44312 | -70.44491 | 408 ft | 126 kts | 186° |
| 2026-04-23 22:04 | -23.45376 | -70.44628 | 633 ft | 165 kts | 188° |
| 2026-04-23 22:04 | -23.46546 | -70.44762 | 1362 ft | 174 kts | 187° |
| 2026-04-23 22:05 | -23.47781 | -70.44880 | 2163 ft | 182 kts | 186° |
| 2026-04-23 22:05 | -23.49056 | -70.44977 | 3080 ft | 183 kts | 185° |
| 2026-04-23 22:05 | -23.50321 | -70.45031 | 4047 ft | 181 kts | 179° |
| 2026-04-23 22:05 | -23.51542 | -70.44747 | 4565 ft | 185 kts | 165° |
| 2026-04-23 22:06 | -23.52831 | -70.44265 | 4701 ft | 206 kts | 163° |
| 2026-04-23 22:06 | -23.54240 | -70.43757 | 4845 ft | 225 kts | 165° |
| 2026-04-23 22:06 | -23.55798 | -70.43264 | 5048 ft | 243 kts | 167° |
| 2026-04-23 22:06 | -23.57481 | -70.42804 | 5476 ft | 254 kts | 168° |
| 2026-04-23 22:07 | -23.59273 | -70.42373 | 5806 ft | 272 kts | 170° |
| 2026-04-23 22:07 | -23.61160 | -70.41962 | 6401 ft | 279 kts | 171° |
| 2026-04-23 22:07 | -23.63080 | -70.41576 | 7052 ft | 283 kts | 171° |
| 2026-04-23 22:07 | -23.65035 | -70.41201 | 7714 ft | 286 kts | 172° |
| 2026-04-23 22:08 | -23.67006 | -70.40830 | 8348 ft | 290 kts | 172° |
| 2026-04-23 22:08 | -23.69004 | -70.40458 | 8993 ft | 293 kts | 172° |
| 2026-04-23 22:08 | -23.71025 | -70.40083 | 9611 ft | 296 kts | 172° |
| 2026-04-23 22:08 | -23.73071 | -70.39703 | 10181 ft | 303 kts | 172° |
| 2026-04-23 22:09 | -23.75226 | -70.39302 | 10318 ft | 325 kts | 171° |
| 2026-04-23 22:09 | -23.77523 | -70.38876 | 10449 ft | 344 kts | 171° |
| 2026-04-23 22:09 | -23.79933 | -70.38487 | 10754 ft | 354 kts | 177° |
| 2026-04-23 22:09 | -23.82411 | -70.38389 | 11258 ft | 358 kts | 179° |
| 2026-04-23 22:10 | -23.84910 | -70.38308 | 11801 ft | 361 kts | 179° |
| 2026-04-23 22:10 | -23.87427 | -70.38225 | 12363 ft | 363 kts | 179° |
| 2026-04-23 22:10 | -23.89969 | -70.38143 | 12895 ft | 367 kts | 179° |
| 2026-04-23 22:10 | -23.92533 | -70.38059 | 13403 ft | 371 kts | 179° |
| 2026-04-23 22:11 | -23.95127 | -70.37973 | 13880 ft | 375 kts | 179° |
| 2026-04-23 22:11 | -23.97744 | -70.37884 | 14363 ft | 379 kts | 180° |
| 2026-04-23 22:11 | -24.00395 | -70.37791 | 14850 ft | 382 kts | 180° |
| 2026-04-23 22:11 | -24.03034 | -70.37701 | 15336 ft | 386 kts | 180° |
| 2026-04-23 22:12 | -24.05761 | -70.37610 | 15806 ft | 389 kts | 180° |
| 2026-04-23 22:12 | -24.08485 | -70.37522 | 16270 ft | 393 kts | 180° |
| 2026-04-23 22:12 | -24.11233 | -70.37435 | 16692 ft | 397 kts | 180° |
| 2026-04-23 22:12 | -24.14006 | -70.37345 | 17123 ft | 401 kts | 181° |
| 2026-04-23 22:13 | -24.16804 | -70.37252 | 17545 ft | 404 kts | 181° |
| 2026-04-23 22:13 | -24.18672 | -70.37191 | 17820 ft | 407 kts | 181° |
| 2026-04-23 22:13 | -24.22476 | -70.37061 | 18069 ft | 410 kts | 181° |
| 2026-04-23 22:13 | -24.24365 | -70.36994 | 18092 ft | 410 kts | 181° |
| 2026-04-23 22:14 | -24.28137 | -70.36860 | 18092 ft | 409 kts | 181° |
| 2026-04-23 22:14 | -24.31033 | -70.36763 | 18108 ft | 424 kts | 181° |
| 2026-04-23 22:14 | -24.33997 | -70.36665 | 18100 ft | 429 kts | 181° |
| 2026-04-23 22:14 | -24.36990 | -70.36567 | 18331 ft | 432 kts | 181° |
| 2026-04-23 22:15 | -24.40030 | -70.36466 | 18588 ft | 441 kts | 181° |
| 2026-04-23 22:15 | -24.42107 | -70.36396 | 18834 ft | 444 kts | 181° |
| 2026-04-23 22:15 | -24.46223 | -70.36255 | 19364 ft | 448 kts | 181° |
| 2026-04-23 22:15 | -24.48288 | -70.36185 | 19633 ft | 450 kts | 181° |
| 2026-04-23 22:16 | -24.51432 | -70.36078 | 20029 ft | 452 kts | 181° |
| 2026-04-23 22:16 | -24.54581 | -70.35972 | 20411 ft | 455 kts | 181° |
| 2026-04-23 22:16 | -24.57755 | -70.35867 | 20765 ft | 457 kts | 181° |
| 2026-04-23 22:16 | -24.60938 | -70.35762 | 21093 ft | 460 kts | 181° |
| 2026-04-23 22:17 | -24.65241 | -70.35621 | 21516 ft | 462 kts | 182° |
| 2026-04-23 22:17 | -24.67374 | -70.35551 | 21746 ft | 464 kts | 182° |
| 2026-04-23 22:17 | -24.70607 | -70.35444 | 22058 ft | 466 kts | 182° |
| 2026-04-23 22:17 | -24.73862 | -70.35333 | 22267 ft | 470 kts | 182° |
| 2026-04-23 22:18 | -24.77139 | -70.35219 | 22531 ft | 472 kts | 182° |
| 2026-04-23 22:18 | -24.80436 | -70.35105 | 22783 ft | 474 kts | 182° |
| 2026-04-23 22:18 | -24.83741 | -70.34992 | 23041 ft | 476 kts | 182° |
| 2026-04-23 22:18 | -24.87057 | -70.34882 | 23290 ft | 478 kts | 182° |
| 2026-04-23 22:19 | -24.90384 | -70.34773 | 23524 ft | 480 kts | 182° |
| 2026-04-23 22:19 | -24.93728 | -70.34663 | 23756 ft | 482 kts | 182° |
| 2026-04-23 22:19 | -24.97087 | -70.34552 | 24028 ft | 483 kts | 182° |
| 2026-04-23 22:19 | -25.00446 | -70.34440 | 24279 ft | 484 kts | 182° |
| 2026-04-23 22:20 | -25.03822 | -70.34324 | 24521 ft | 485 kts | 183° |
| 2026-04-23 22:20 | -25.07201 | -70.34208 | 24767 ft | 486 kts | 183° |
| 2026-04-23 22:20 | -25.10584 | -70.34095 | 24982 ft | 487 kts | 183° |
| 2026-04-23 22:20 | -25.13982 | -70.33980 | 25201 ft | 488 kts | 184° |
| 2026-04-23 22:21 | -25.17379 | -70.33865 | 25416 ft | 489 kts | 184° |
| 2026-04-23 22:21 | -25.20781 | -70.33748 | 25630 ft | 490 kts | 184° |
| 2026-04-23 22:21 | -25.24185 | -70.33633 | 25934 ft | 487 kts | 184° |
| 2026-04-23 22:21 | -25.27567 | -70.33520 | 26255 ft | 486 kts | 184° |
| 2026-04-23 22:22 | -25.30943 | -70.33407 | 26576 ft | 484 kts | 185° |
| 2026-04-23 22:22 | -25.34308 | -70.33293 | 26894 ft | 483 kts | 185° |
| 2026-04-23 22:22 | -25.37661 | -70.33181 | 27212 ft | 481 kts | 185° |
| 2026-04-23 22:22 | -25.41004 | -70.33069 | 27483 ft | 481 kts | 185° |
| 2026-04-23 22:23 | -25.44345 | -70.32954 | 27781 ft | 479 kts | 186° |
| 2026-04-23 22:23 | -25.47626 | -70.32838 | 28092 ft | 477 kts | 186° |
| 2026-04-23 22:23 | -25.50985 | -70.32720 | 28434 ft | 475 kts | 186° |
| 2026-04-23 22:23 | -25.54283 | -70.32608 | 28757 ft | 473 kts | 187° |
| 2026-04-23 22:24 | -25.57575 | -70.32499 | 29067 ft | 472 kts | 187° |
| 2026-04-23 22:24 | -25.60807 | -70.32390 | 29389 ft | 470 kts | 188° |
| 2026-04-23 22:24 | -25.64076 | -70.32275 | 29711 ft | 468 kts | 188° |
| 2026-04-23 22:24 | -25.67324 | -70.32165 | 30030 ft | 467 kts | 188° |
| 2026-04-23 22:25 | -25.70559 | -70.32060 | 30379 ft | 464 kts | 188° |
| 2026-04-23 22:25 | -25.73777 | -70.31954 | 30661 ft | 463 kts | 189° |
| 2026-04-23 22:25 | -25.76998 | -70.31845 | 30920 ft | 462 kts | 189° |
| 2026-04-23 22:25 | -25.80208 | -70.31737 | 31161 ft | 462 kts | 189° |
| 2026-04-23 22:26 | -25.83422 | -70.31632 | 31394 ft | 462 kts | 189° |
| 2026-04-23 22:26 | -25.86637 | -70.31525 | 31637 ft | 462 kts | 189° |
| 2026-04-23 22:26 | -25.89851 | -70.31417 | 31877 ft | 462 kts | 189° |
| 2026-04-23 22:26 | -25.93064 | -70.31306 | 32126 ft | 461 kts | 189° |
| 2026-04-23 22:27 | -25.96274 | -70.31195 | 32338 ft | 461 kts | 189° |
| 2026-04-23 22:27 | -25.99486 | -70.31089 | 32563 ft | 461 kts | 189° |
| 2026-04-23 22:27 | -26.02694 | -70.30985 | 32781 ft | 462 kts | 189° |
| 2026-04-23 22:27 | -26.05906 | -70.30882 | 33005 ft | 460 kts | 191° |
| 2026-04-23 22:28 | -26.09064 | -70.31037 | 33242 ft | 451 kts | 196° |
| 2026-04-23 22:28 | -26.12191 | -70.31314 | 33468 ft | 451 kts | 196° |
| 2026-04-23 22:28 | -26.15311 | -70.31600 | 33717 ft | 451 kts | 196° |
| 2026-04-23 22:28 | -26.18439 | -70.31892 | 33967 ft | 450 kts | 196° |
| 2026-04-23 22:29 | -26.21568 | -70.32186 | 34184 ft | 451 kts | 196° |
| 2026-04-23 22:29 | -26.24692 | -70.32478 | 34388 ft | 451 kts | 197° |
| 2026-04-23 22:29 | -26.27834 | -70.32767 | 34584 ft | 452 kts | 197° |
| 2026-04-23 22:29 | -26.30929 | -70.33050 | 34772 ft | 453 kts | 197° |
| 2026-04-23 22:30 | -26.34070 | -70.33336 | 34959 ft | 453 kts | 197° |
| 2026-04-23 22:30 | -26.37218 | -70.33625 | 35138 ft | 454 kts | 197° |
| 2026-04-23 22:30 | -26.40370 | -70.33916 | 35327 ft | 455 kts | 197° |
| 2026-04-23 22:30 | -26.43534 | -70.34208 | 35462 ft | 456 kts | 197° |
| 2026-04-23 22:31 | -26.46697 | -70.34501 | 35589 ft | 457 kts | 197° |
| 2026-04-23 22:31 | -26.49866 | -70.34792 | 35730 ft | 458 kts | 197° |
| 2026-04-23 22:31 | -26.53046 | -70.35083 | 35894 ft | 458 kts | 197° |
| 2026-04-23 22:31 | -26.56226 | -70.35374 | 36050 ft | 458 kts | 197° |
| 2026-04-23 22:32 | -26.62627 | -70.35976 | 36087 ft | 465 kts | 197° |
| 2026-04-23 22:32 | -26.69090 | -70.36574 | 36092 ft | 468 kts | 197° |
| 2026-04-23 22:33 | -26.75590 | -70.37169 | 36091 ft | 469 kts | 197° |
| 2026-04-23 22:33 | -26.82086 | -70.37770 | 36089 ft | 468 kts | 197° |
| 2026-04-23 22:34 | -26.88546 | -70.38364 | 36092 ft | 469 kts | 198° |
| 2026-04-23 22:34 | -26.95047 | -70.38970 | 36092 ft | 469 kts | 198° |
| 2026-04-23 22:35 | -27.01558 | -70.39583 | 36085 ft | 469 kts | 198° |
| 2026-04-23 22:35 | -27.08067 | -70.40197 | 36088 ft | 470 kts | 198° |
| 2026-04-23 22:36 | -27.14593 | -70.40800 | 36091 ft | 470 kts | 198° |
| 2026-04-23 22:36 | -27.21107 | -70.41400 | 36091 ft | 470 kts | 198° |
| 2026-04-23 22:37 | -27.27619 | -70.42010 | 36092 ft | 469 kts | 199° |
| 2026-04-23 22:37 | -27.34133 | -70.42628 | 36086 ft | 470 kts | 198° |
| 2026-04-23 22:38 | -27.40657 | -70.43237 | 36090 ft | 471 kts | 198° |
| 2026-04-23 22:38 | -27.47191 | -70.43852 | 36088 ft | 471 kts | 199° |
| 2026-04-23 22:39 | -27.53733 | -70.44468 | 36091 ft | 471 kts | 199° |
| 2026-04-23 22:39 | -27.60263 | -70.45079 | 36092 ft | 471 kts | 199° |
| 2026-04-23 22:40 | -27.66801 | -70.45697 | 36092 ft | 471 kts | 199° |
| 2026-04-23 22:41 | -27.76594 | -70.46620 | 36095 ft | 471 kts | 199° |
| 2026-04-23 22:41 | -27.83093 | -70.47235 | 36093 ft | 471 kts | 199° |
| 2026-04-23 22:42 | -27.89627 | -70.47851 | 36094 ft | 471 kts | 199° |
| 2026-04-23 22:42 | -27.96158 | -70.48465 | 36097 ft | 470 kts | 199° |
| 2026-04-23 22:43 | -28.02675 | -70.49088 | 36096 ft | 470 kts | 199° |
| 2026-04-23 22:43 | -28.09192 | -70.49719 | 36079 ft | 469 kts | 199° |
| 2026-04-23 22:44 | -28.15721 | -70.50342 | 36068 ft | 472 kts | 199° |
| 2026-04-23 22:44 | -28.22270 | -70.50955 | 35846 ft | 471 kts | 199° |
| 2026-04-23 22:44 | -28.25535 | -70.51266 | 35725 ft | 471 kts | 199° |
| 2026-04-23 22:45 | -28.28752 | -70.51575 | 35602 ft | 470 kts | 199° |
| 2026-04-23 22:45 | -28.32012 | -70.51890 | 35477 ft | 470 kts | 199° |
| 2026-04-23 22:45 | -28.35274 | -70.52203 | 35349 ft | 469 kts | 199° |
| 2026-04-23 22:45 | -28.38532 | -70.52515 | 35213 ft | 470 kts | 199° |
| 2026-04-23 22:46 | -28.41788 | -70.52824 | 35036 ft | 469 kts | 199° |
| 2026-04-23 22:46 | -28.48283 | -70.53443 | 35094 ft | 469 kts | 199° |
| 2026-04-23 22:47 | -28.54781 | -70.54058 | 35084 ft | 469 kts | 198° |
| 2026-04-23 22:47 | -28.61273 | -70.54663 | 35080 ft | 467 kts | 199° |
| 2026-04-23 22:48 | -28.67763 | -70.55276 | 35080 ft | 469 kts | 199° |
| 2026-04-23 22:48 | -28.74272 | -70.55888 | 35070 ft | 470 kts | 198° |
| 2026-04-23 22:49 | -28.80788 | -70.56493 | 35078 ft | 470 kts | 198° |
| 2026-04-23 22:49 | -28.87303 | -70.57099 | 35084 ft | 470 kts | 198° |
| 2026-04-23 22:50 | -28.93837 | -70.57721 | 35089 ft | 470 kts | 198° |
| 2026-04-23 22:50 | -29.00356 | -70.58354 | 35084 ft | 470 kts | 198° |
| 2026-04-23 22:51 | -29.06828 | -70.58987 | 35087 ft | 470 kts | 198° |
| 2026-04-23 22:51 | -29.13354 | -70.59619 | 35084 ft | 471 kts | 198° |
| 2026-04-23 22:52 | -29.19892 | -70.60245 | 35076 ft | 470 kts | 198° |
| 2026-04-23 22:52 | -29.26412 | -70.60869 | 35083 ft | 470 kts | 198° |
| 2026-04-23 22:53 | -29.32947 | -70.61507 | 35086 ft | 471 kts | 198° |
| 2026-04-23 22:53 | -29.39483 | -70.62140 | 35081 ft | 470 kts | 198° |
| 2026-04-23 22:54 | -29.46010 | -70.62775 | 35088 ft | 471 kts | 198° |
| 2026-04-23 22:54 | -29.52548 | -70.63423 | 35078 ft | 471 kts | 198° |
| 2026-04-23 22:55 | -29.59084 | -70.64063 | 35082 ft | 472 kts | 198° |
| 2026-04-23 22:55 | -29.65630 | -70.64698 | 35067 ft | 472 kts | 198° |
| 2026-04-23 22:56 | -29.72184 | -70.65330 | 35072 ft | 473 kts | 198° |
| 2026-04-23 22:56 | -29.78756 | -70.65971 | 35079 ft | 473 kts | 198° |
| 2026-04-23 22:57 | -29.85314 | -70.66621 | 35081 ft | 473 kts | 198° |
| 2026-04-23 22:57 | -29.91881 | -70.67276 | 35079 ft | 472 kts | 198° |
| 2026-04-23 22:58 | -29.98448 | -70.67927 | 34809 ft | 474 kts | 198° |
| 2026-04-23 22:58 | -30.01737 | -70.68248 | 34510 ft | 473 kts | 197° |
| 2026-04-23 22:58 | -30.05017 | -70.68569 | 34218 ft | 473 kts | 197° |
| 2026-04-23 22:58 | -30.08252 | -70.68886 | 33921 ft | 473 kts | 196° |
| 2026-04-23 22:59 | -30.10469 | -70.69104 | 33715 ft | 473 kts | 196° |
| 2026-04-23 22:59 | -30.14819 | -70.69536 | 33317 ft | 474 kts | 196° |
| 2026-04-23 22:59 | -30.18106 | -70.69860 | 33017 ft | 475 kts | 195° |
| 2026-04-23 22:59 | -30.21405 | -70.70187 | 32702 ft | 475 kts | 195° |
| 2026-04-23 23:00 | -30.24705 | -70.70516 | 32413 ft | 476 kts | 195° |
| 2026-04-23 23:00 | -30.28007 | -70.70846 | 32109 ft | 477 kts | 195° |
| 2026-04-23 23:00 | -30.31320 | -70.71177 | 31811 ft | 479 kts | 194° |
| 2026-04-23 23:00 | -30.34635 | -70.71503 | 31514 ft | 478 kts | 194° |
| 2026-04-23 23:01 | -30.36837 | -70.71718 | 31309 ft | 479 kts | 194° |
| 2026-04-23 23:01 | -30.40160 | -70.72044 | 31069 ft | 479 kts | 194° |
| 2026-04-23 23:01 | -30.43479 | -70.72373 | 31087 ft | 480 kts | 194° |
| 2026-04-23 23:02 | -30.50141 | -70.73032 | 31087 ft | 480 kts | 193° |
| 2026-04-23 23:02 | -30.56798 | -70.73696 | 31091 ft | 480 kts | 193° |
| 2026-04-23 23:03 | -30.63475 | -70.74356 | 31092 ft | 480 kts | 193° |
| 2026-04-23 23:03 | -30.70134 | -70.75007 | 31093 ft | 482 kts | 193° |
| 2026-04-23 23:04 | -30.76801 | -70.75647 | 31087 ft | 479 kts | 193° |
| 2026-04-23 23:04 | -30.83454 | -70.76290 | 31090 ft | 479 kts | 193° |
| 2026-04-23 23:05 | -30.90096 | -70.76938 | 31094 ft | 479 kts | 193° |
| 2026-04-23 23:05 | -30.96748 | -70.77581 | 31095 ft | 479 kts | 193° |
| 2026-04-23 23:06 | -31.03387 | -70.78229 | 31085 ft | 478 kts | 193° |
| 2026-04-23 23:06 | -31.10032 | -70.78892 | 31100 ft | 479 kts | 192° |
| 2026-04-23 23:07 | -31.16669 | -70.79545 | 31093 ft | 479 kts | 192° |
| 2026-04-23 23:07 | -31.23320 | -70.80201 | 31110 ft | 480 kts | 192° |
| 2026-04-23 23:08 | -31.29925 | -70.80829 | 31114 ft | 479 kts | 192° |
| 2026-04-23 23:08 | -31.36566 | -70.81483 | 31119 ft | 479 kts | 192° |
| 2026-04-23 23:09 | -31.43203 | -70.82141 | 31123 ft | 478 kts | 192° |
| 2026-04-23 23:09 | -31.49834 | -70.82805 | 31133 ft | 478 kts | 192° |
| 2026-04-23 23:10 | -31.56467 | -70.83461 | 31129 ft | 478 kts | 192° |
| 2026-04-23 23:10 | -31.63085 | -70.84115 | 31129 ft | 477 kts | 192° |
| 2026-04-23 23:11 | -31.69703 | -70.84770 | 31128 ft | 477 kts | 192° |
| 2026-04-23 23:11 | -31.76329 | -70.85283 | 31131 ft | 482 kts | 185° |
| 2026-04-23 23:12 | -31.83048 | -70.85040 | 31130 ft | 482 kts | 185° |
| 2026-04-23 23:12 | -31.89749 | -70.84787 | 31128 ft | 482 kts | 185° |
| 2026-04-23 23:12 | -31.93100 | -70.84666 | 30360 ft | 482 kts | 185° |
| 2026-04-23 23:13 | -31.96479 | -70.84550 | 29070 ft | 489 kts | 184° |
| 2026-04-23 23:13 | -31.99898 | -70.84433 | 27761 ft | 493 kts | 184° |
| 2026-04-23 23:13 | -32.03343 | -70.84313 | 26443 ft | 495 kts | 183° |
| 2026-04-23 23:13 | -32.06780 | -70.84190 | 25132 ft | 494 kts | 182° |
| 2026-04-23 23:14 | -32.10219 | -70.84062 | 23877 ft | 493 kts | 182° |
| 2026-04-23 23:14 | -32.13601 | -70.83933 | 23438 ft | 476 kts | 182° |
| 2026-04-23 23:14 | -32.16837 | -70.83807 | 23329 ft | 455 kts | 182° |
| 2026-04-23 23:14 | -32.19942 | -70.83685 | 23225 ft | 437 kts | 182° |
| 2026-04-23 23:15 | -32.22918 | -70.83574 | 23126 ft | 420 kts | 182° |
| 2026-04-23 23:15 | -32.25794 | -70.83473 | 22978 ft | 407 kts | 182° |
| 2026-04-23 23:15 | -32.28626 | -70.83378 | 22199 ft | 410 kts | 182° |
| 2026-04-23 23:15 | -32.31487 | -70.83288 | 21517 ft | 412 kts | 182° |
| 2026-04-23 23:16 | -32.34354 | -70.83196 | 20838 ft | 413 kts | 182° |
| 2026-04-23 23:16 | -32.37233 | -70.83098 | 20155 ft | 414 kts | 181° |
| 2026-04-23 23:16 | -32.40078 | -70.82995 | 19479 ft | 415 kts | 181° |
| 2026-04-23 23:16 | -32.42967 | -70.82886 | 18793 ft | 416 kts | 181° |
| 2026-04-23 23:17 | -32.45867 | -70.82781 | 18104 ft | 417 kts | 180° |
| 2026-04-23 23:17 | -32.48801 | -70.82676 | 17411 ft | 416 kts | 180° |
| 2026-04-23 23:17 | -32.51650 | -70.82574 | 16737 ft | 415 kts | 180° |
| 2026-04-23 23:17 | -32.54523 | -70.82468 | 16059 ft | 413 kts | 180° |
| 2026-04-23 23:18 | -32.57407 | -70.82361 | 15369 ft | 414 kts | 180° |
| 2026-04-23 23:18 | -32.60293 | -70.82254 | 14685 ft | 415 kts | 180° |
| 2026-04-23 23:18 | -32.63172 | -70.82151 | 14142 ft | 412 kts | 180° |
| 2026-04-23 23:18 | -32.65980 | -70.82049 | 14046 ft | 396 kts | 180° |
| 2026-04-23 23:19 | -32.68715 | -70.81947 | 13948 ft | 380 kts | 180° |
| 2026-04-23 23:19 | -32.71279 | -70.81854 | 13801 ft | 367 kts | 180° |
| 2026-04-23 23:19 | -32.73787 | -70.81764 | 13647 ft | 355 kts | 180° |
| 2026-04-23 23:19 | -32.76254 | -70.81676 | 13413 ft | 346 kts | 180° |
| 2026-04-23 23:20 | -32.78685 | -70.81591 | 12808 ft | 350 kts | 180° |
| 2026-04-23 23:20 | -32.81081 | -70.81505 | 12294 ft | 352 kts | 180° |
| 2026-04-23 23:20 | -32.83528 | -70.81417 | 11770 ft | 353 kts | 180° |
| 2026-04-23 23:20 | -32.85986 | -70.81327 | 11242 ft | 353 kts | 180° |
| 2026-04-23 23:21 | -32.88436 | -70.81236 | 10719 ft | 352 kts | 179° |
| 2026-04-23 23:21 | -32.90873 | -70.81142 | 10257 ft | 349 kts | 179° |
| 2026-04-23 23:21 | -32.93255 | -70.81050 | 10117 ft | 336 kts | 179° |
| 2026-04-23 23:21 | -32.95529 | -70.80941 | 10132 ft | 319 kts | 178° |
| 2026-04-23 23:22 | -32.97690 | -70.80823 | 10020 ft | 306 kts | 178° |
| 2026-04-23 23:22 | -32.99826 | -70.80701 | 9206 ft | 307 kts | 177° |
| 2026-04-23 23:22 | -33.01966 | -70.80583 | 8379 ft | 308 kts | 177° |
| 2026-04-23 23:22 | -33.04109 | -70.80466 | 7558 ft | 308 kts | 177° |
| 2026-04-23 23:23 | -33.06248 | -70.80352 | 6813 ft | 305 kts | 177° |
| 2026-04-23 23:23 | -33.08333 | -70.80241 | 6328 ft | 293 kts | 177° |
| 2026-04-23 23:23 | -33.10328 | -70.80134 | 5903 ft | 281 kts | 177° |
| 2026-04-23 23:23 | -33.12224 | -70.80033 | 5521 ft | 265 kts | 177° |
| 2026-04-23 23:24 | -33.13971 | -70.79942 | 5352 ft | 239 kts | 177° |
| 2026-04-23 23:24 | -33.15557 | -70.79858 | 5269 ft | 220 kts | 177° |
| 2026-04-23 23:24 | -33.17072 | -70.79777 | 5181 ft | 216 kts | 177° |
| 2026-04-23 23:24 | -33.18570 | -70.79698 | 5088 ft | 215 kts | 176° |
| 2026-04-23 23:25 | -33.20051 | -70.79620 | 5004 ft | 207 kts | 177° |
| 2026-04-23 23:25 | -33.21451 | -70.79541 | 4713 ft | 196 kts | 177° |
| 2026-04-23 23:25 | -33.22776 | -70.79467 | 4438 ft | 184 kts | 177° |
| 2026-04-23 23:25 | -33.24012 | -70.79401 | 4204 ft | 172 kts | 178° |
| 2026-04-23 23:26 | -33.25162 | -70.79339 | 3993 ft | 161 kts | 178° |
| 2026-04-23 23:26 | -33.26266 | -70.79280 | 3783 ft | 158 kts | 178° |
| 2026-04-23 23:26 | -33.27356 | -70.79221 | 3565 ft | 156 kts | 178° |
| 2026-04-23 23:26 | -33.28438 | -70.79163 | 3365 ft | 155 kts | 178° |
| 2026-04-23 23:27 | -33.29514 | -70.79107 | 3159 ft | 155 kts | 178° |
| 2026-04-23 23:27 | -33.30588 | -70.79049 | 2954 ft | 154 kts | 178° |
| 2026-04-23 23:27 | -33.31665 | -70.78990 | 2752 ft | 155 kts | 176° |
| 2026-04-23 23:27 | -33.32732 | -70.78930 | 2560 ft | 152 kts | 175° |
| 2026-04-23 23:28 | -33.33774 | -70.78861 | 2400 ft | 148 kts | 175° |
| 2026-04-23 23:28 | -33.34798 | -70.78787 | 2216 ft | 147 kts | 176° |
| 2026-04-23 23:28 | -33.35810 | -70.78735 | 1975 ft | 145 kts | 178° |
| 2026-04-23 23:28 | -33.36815 | -70.78698 | 1762 ft | 144 kts | 178° |
| 2026-04-23 23:29 | -33.37811 | -70.78647 | 1595 ft | 143 kts | 178° |
| 2026-04-23 23:29 | -33.38705 | -70.78611 | 1564 ft | 94 kts | 177° |
| 2026-04-23 23:29 | -33.39119 | -70.78587 | 1564 ft | 40 kts | 177° |
| 2026-04-23 23:29 | -33.39376 | -70.78576 | 1564 ft | 35 kts | 180° |
| 2026-04-23 23:30 | -33.39589 | -70.78634 | 1563 ft | 19 kts | 207° |
| 2026-04-23 23:30 | -33.39649 | -70.78672 | 1564 ft | 7 kts | 207° |
| 2026-04-23 23:30 | -33.39684 | -70.78694 | 1564 ft | 5 kts | 207° |
| 2026-04-23 23:30 | -33.39708 | -70.78709 | 1565 ft | 3 kts | 207° |
| 2026-04-23 23:31 | -33.39724 | -70.78718 | 1564 ft | 2 kts | 207° |
| 2026-04-23 23:31 | -33.39732 | -70.78724 | 1564 ft | 1 kts | 209° |
| 2026-04-23 23:31 | -33.39734 | -70.78725 | 1564 ft | 0 kts | 209° |
| 2026-04-23 23:31 | -33.39735 | -70.78726 | 1564 ft | 1 kts | 210° |
| 2026-04-23 23:32 | -33.39746 | -70.78749 | 1564 ft | 5 kts | 248° |
| 2026-04-23 23:32 | -33.39751 | -70.78788 | 1564 ft | 4 kts | 267° |
| 2026-04-23 23:32 | -33.39752 | -70.78818 | 1564 ft | 3 kts | 268° |
| 2026-04-23 23:32 | -33.39752 | -70.78838 | 1564 ft | 2 kts | 270° |
| 2026-04-23 23:33 | -33.39739 | -70.78872 | 1564 ft | 8 kts | 320° |
| 2026-04-23 23:33 | -33.39670 | -70.78882 | 1564 ft | 13 kts | 0° |
| 2026-04-23 23:33 | -33.39577 | -70.78883 | 1564 ft | 15 kts | 358° |
| 2026-04-23 23:33 | -33.39491 | -70.78912 | 1564 ft | 13 kts | 297° |
| 2026-04-23 23:34 | -33.39493 | -70.79008 | 1564 ft | 13 kts | 268° |
| 2026-04-23 23:34 | -33.39496 | -70.79115 | 1564 ft | 15 kts | 266° |
| 2026-04-23 23:34 | -33.39502 | -70.79246 | 1564 ft | 16 kts | 267° |
| 2026-04-23 23:34 | -33.39509 | -70.79369 | 1564 ft | 7 kts | 255° |
| 2026-04-23 23:35 | -33.39563 | -70.79376 | 1564 ft | 10 kts | 174° |
| 2026-04-23 23:35 | -33.39594 | -70.79373 | 1564 ft | 2 kts | 175° |